createdAt,value
2017-10-10T00:00:33.050Z,0
2017-10-10T00:01:13.566Z,0
2017-10-10T00:01:54.096Z,0
2017-10-10T00:02:34.641Z,0
2017-10-10T00:03:15.179Z,0
2017-10-10T00:03:55.702Z,0
2017-10-10T00:04:36.222Z,0
2017-10-10T00:05:16.769Z,0
2017-10-10T00:05:57.300Z,0
2017-10-10T00:06:37.828Z,0
2017-10-10T00:07:18.346Z,0
2017-10-10T00:07:58.881Z,0
2017-10-10T00:08:39.409Z,0
2017-10-10T00:09:19.950Z,0
2017-10-10T00:10:00.492Z,0
2017-10-10T00:10:40.990Z,0
2017-10-10T00:11:21.505Z,0
2017-10-10T00:12:02.059Z,0
2017-10-10T00:12:42.613Z,0
2017-10-10T00:13:23.130Z,0
2017-10-10T00:14:03.656Z,0
2017-10-10T00:14:44.192Z,0
2017-10-10T00:15:24.720Z,0
2017-10-10T00:16:05.251Z,0
2017-10-10T00:16:45.781Z,0
2017-10-10T00:17:26.309Z,0
2017-10-10T00:18:06.847Z,0
2017-10-10T00:18:47.383Z,0
2017-10-10T00:19:27.907Z,0
2017-10-10T00:20:08.450Z,0
2017-10-10T00:20:49.007Z,0
2017-10-10T00:21:29.561Z,0
2017-10-10T00:22:10.090Z,0
2017-10-10T00:22:50.638Z,0
2017-10-10T00:23:31.147Z,0
2017-10-10T00:24:11.680Z,0
2017-10-10T00:24:52.224Z,0
2017-10-10T00:25:32.784Z,0
2017-10-10T00:26:13.322Z,0
2017-10-10T00:26:53.860Z,0
2017-10-10T00:27:34.392Z,0
2017-10-10T00:28:14.923Z,0
2017-10-10T00:28:55.456Z,0
2017-10-10T00:29:35.988Z,0
2017-10-10T00:30:16.543Z,0
2017-10-10T00:30:57.082Z,0
2017-10-10T00:31:37.618Z,0
2017-10-10T00:32:18.133Z,0
2017-10-10T00:32:58.651Z,0
2017-10-10T00:33:39.190Z,0
2017-10-10T00:34:19.720Z,0
2017-10-10T00:35:00.228Z,0
2017-10-10T00:35:40.753Z,0
2017-10-10T00:36:21.278Z,0
2017-10-10T00:37:01.822Z,0
2017-10-10T00:37:42.327Z,0
2017-10-10T00:38:22.865Z,0
2017-10-10T00:39:03.373Z,0
2017-10-10T00:39:43.905Z,0
2017-10-10T00:40:24.418Z,0
2017-10-10T00:41:04.947Z,0
2017-10-10T00:41:45.477Z,0
2017-10-10T00:42:26.003Z,0
2017-10-10T00:43:06.568Z,0
2017-10-10T00:43:47.075Z,0
2017-10-10T00:44:27.595Z,0
2017-10-10T00:45:08.133Z,0
2017-10-10T00:45:48.669Z,0
2017-10-10T00:46:29.226Z,0
2017-10-10T00:47:09.733Z,0
2017-10-10T00:47:50.362Z,0
2017-10-10T00:48:30.896Z,0
2017-10-10T00:49:11.409Z,0
2017-10-10T00:49:51.971Z,0
2017-10-10T00:50:32.470Z,0
2017-10-10T00:51:12.978Z,0
2017-10-10T00:51:53.533Z,0
2017-10-10T00:52:34.047Z,0
2017-10-10T00:53:14.571Z,0
2017-10-10T00:53:55.111Z,0
2017-10-10T00:54:35.631Z,0
2017-10-10T00:55:16.157Z,0
2017-10-10T00:55:56.673Z,0
2017-10-10T00:56:37.217Z,0
2017-10-10T00:57:17.736Z,0
2017-10-10T00:57:58.270Z,0
2017-10-10T00:58:38.790Z,0
2017-10-10T00:59:19.302Z,0
2017-10-10T00:59:59.835Z,0
2017-10-10T01:00:40.407Z,0
2017-10-10T01:01:20.870Z,0
2017-10-10T01:02:01.399Z,0
2017-10-10T01:02:41.936Z,0
2017-10-10T01:03:22.440Z,0
2017-10-10T01:04:02.975Z,0
2017-10-10T01:04:43.517Z,0
2017-10-10T01:05:24.061Z,0
2017-10-10T01:06:04.598Z,0
2017-10-10T01:06:45.135Z,0
2017-10-10T01:07:25.665Z,0
2017-10-10T01:08:06.197Z,0
2017-10-10T01:08:46.710Z,0
2017-10-10T01:09:27.240Z,0
2017-10-10T01:10:07.769Z,0
2017-10-10T01:10:48.294Z,0
2017-10-10T01:11:28.831Z,0
2017-10-10T01:12:09.362Z,0
2017-10-10T01:12:49.892Z,0
2017-10-10T01:13:30.430Z,0
2017-10-10T01:14:10.954Z,0
2017-10-10T01:14:51.483Z,0
2017-10-10T01:15:32.019Z,0
2017-10-10T01:16:12.553Z,0
2017-10-10T01:16:53.073Z,0
2017-10-10T01:17:33.618Z,0
2017-10-10T01:18:14.128Z,0
2017-10-10T01:18:54.662Z,0
2017-10-10T01:19:35.197Z,0
2017-10-10T01:20:15.736Z,0
2017-10-10T01:20:56.263Z,0
2017-10-10T01:21:36.783Z,0
2017-10-10T01:22:17.908Z,0
2017-10-10T01:22:58.437Z,0
2017-10-10T01:23:38.994Z,0
2017-10-10T01:24:19.538Z,0
2017-10-10T01:25:00.060Z,0
2017-10-10T01:25:40.583Z,0
2017-10-10T01:26:21.112Z,0
2017-10-10T01:27:01.648Z,0
2017-10-10T01:27:42.178Z,0
2017-10-10T01:28:22.709Z,0
2017-10-10T01:29:03.243Z,0
2017-10-10T01:29:43.780Z,0
2017-10-10T01:30:24.303Z,0
2017-10-10T01:31:04.862Z,0
2017-10-10T01:31:45.408Z,0
2017-10-10T01:32:25.932Z,0
2017-10-10T01:33:06.462Z,0
2017-10-10T01:33:46.992Z,0
2017-10-10T01:34:27.522Z,0
2017-10-10T01:35:08.053Z,0
2017-10-10T01:35:48.600Z,0
2017-10-10T01:36:29.108Z,0
2017-10-10T01:37:09.646Z,0
2017-10-10T01:37:50.181Z,0
2017-10-10T01:38:30.741Z,0
2017-10-10T01:39:11.243Z,0
2017-10-10T01:39:51.779Z,0
2017-10-10T01:40:32.306Z,0
2017-10-10T01:41:12.838Z,0
2017-10-10T01:41:53.359Z,0
2017-10-10T01:42:33.900Z,0
2017-10-10T01:43:14.410Z,0
2017-10-10T01:43:54.952Z,0
2017-10-10T01:44:35.481Z,0
2017-10-10T01:45:16.007Z,0
2017-10-10T01:45:56.536Z,0
2017-10-10T01:46:37.073Z,0
2017-10-10T01:47:17.598Z,0
2017-10-10T01:47:58.125Z,0
2017-10-10T01:48:38.662Z,0
2017-10-10T01:49:19.192Z,0
2017-10-10T01:49:59.725Z,0
2017-10-10T01:50:40.267Z,0
2017-10-10T01:51:20.791Z,0
2017-10-10T01:52:01.321Z,0
2017-10-10T01:52:41.860Z,0
2017-10-10T01:53:22.385Z,0
2017-10-10T01:54:02.911Z,0
2017-10-10T01:54:43.444Z,0
2017-10-10T01:55:23.977Z,0
2017-10-10T01:56:04.510Z,0
2017-10-10T01:56:45.035Z,0
2017-10-10T01:57:25.563Z,0
2017-10-10T01:58:06.096Z,0
2017-10-10T01:58:46.627Z,0
2017-10-10T01:59:27.161Z,0
2017-10-10T02:00:07.683Z,0
2017-10-10T02:00:48.229Z,0
2017-10-10T02:01:28.749Z,0
2017-10-10T02:02:09.288Z,0
2017-10-10T02:02:49.816Z,0
2017-10-10T02:03:30.337Z,0
2017-10-10T02:04:10.852Z,0
2017-10-10T02:04:51.386Z,0
2017-10-10T02:05:31.913Z,0
2017-10-10T02:06:12.441Z,0
2017-10-10T02:06:52.970Z,0
2017-10-10T02:07:33.506Z,0
2017-10-10T02:08:14.036Z,0
2017-10-10T02:08:54.571Z,0
2017-10-10T02:09:35.107Z,0
2017-10-10T02:10:15.630Z,0
2017-10-10T02:10:56.160Z,0
2017-10-10T02:11:36.678Z,0
2017-10-10T02:12:17.224Z,0
2017-10-10T02:12:57.747Z,0
2017-10-10T02:13:39.923Z,0
2017-10-10T02:14:20.445Z,0
2017-10-10T02:15:00.977Z,0
2017-10-10T02:15:41.508Z,0
2017-10-10T02:16:22.051Z,0
2017-10-10T02:17:02.563Z,0
2017-10-10T02:17:43.092Z,0
2017-10-10T02:18:23.620Z,0
2017-10-10T02:19:04.178Z,0
2017-10-10T02:19:44.689Z,0
2017-10-10T02:20:25.219Z,0
2017-10-10T02:21:05.751Z,0
2017-10-10T02:21:46.283Z,0
2017-10-10T02:22:26.827Z,0
2017-10-10T02:23:07.362Z,0
2017-10-10T02:23:47.907Z,0
2017-10-10T02:24:28.422Z,0
2017-10-10T02:25:08.959Z,0
2017-10-10T02:25:49.497Z,0
2017-10-10T02:26:30.020Z,0
2017-10-10T02:27:10.550Z,0
2017-10-10T02:27:51.075Z,0
2017-10-10T02:28:31.598Z,0
2017-10-10T02:29:12.148Z,0
2017-10-10T02:29:52.686Z,0
2017-10-10T02:30:33.225Z,0
2017-10-10T02:31:13.760Z,0
2017-10-10T02:31:54.297Z,0
2017-10-10T02:32:34.826Z,0
2017-10-10T02:33:15.352Z,0
2017-10-10T02:33:55.873Z,0
2017-10-10T02:34:36.402Z,0
2017-10-10T02:35:16.938Z,0
2017-10-10T02:35:57.469Z,0
2017-10-10T02:36:38.001Z,0
2017-10-10T02:37:18.527Z,0
2017-10-10T02:37:59.067Z,0
2017-10-10T02:38:39.589Z,0
2017-10-10T02:39:20.125Z,0
2017-10-10T02:40:00.648Z,0
2017-10-10T02:40:41.186Z,0
2017-10-10T02:41:21.728Z,0
2017-10-10T02:42:02.248Z,0
2017-10-10T02:42:42.777Z,0
2017-10-10T02:43:23.296Z,0
2017-10-10T02:44:03.851Z,0
2017-10-10T02:44:44.402Z,0
2017-10-10T02:45:24.900Z,0
2017-10-10T02:46:05.407Z,0
2017-10-10T02:46:45.938Z,0
2017-10-10T02:47:26.454Z,0
2017-10-10T02:48:06.973Z,0
2017-10-10T02:48:47.492Z,0
2017-10-10T02:49:28.005Z,0
2017-10-10T02:50:08.515Z,0
2017-10-10T02:50:49.052Z,0
2017-10-10T02:51:29.662Z,0
2017-10-10T02:52:10.166Z,0
2017-10-10T02:52:50.719Z,0
2017-10-10T02:53:31.241Z,0
2017-10-10T02:54:11.805Z,0
2017-10-10T02:54:52.316Z,0
2017-10-10T02:55:32.851Z,0
2017-10-10T02:56:13.365Z,0
2017-10-10T02:56:53.911Z,0
2017-10-10T02:57:34.473Z,0
2017-10-10T02:58:14.988Z,0
2017-10-10T02:58:55.544Z,0
2017-10-10T02:59:36.066Z,0
2017-10-10T03:00:16.612Z,0
2017-10-10T03:00:57.133Z,0
2017-10-10T03:01:37.747Z,0
2017-10-10T03:02:18.263Z,0
2017-10-10T03:02:58.783Z,0
2017-10-10T03:03:39.339Z,0
2017-10-10T03:04:19.869Z,0
2017-10-10T03:05:00.397Z,0
2017-10-10T03:05:40.935Z,0
2017-10-10T03:06:21.469Z,0
2017-10-10T03:07:01.995Z,0
2017-10-10T03:07:42.527Z,0
2017-10-10T03:08:23.054Z,0
2017-10-10T03:09:03.588Z,0
2017-10-10T03:09:44.124Z,0
2017-10-10T03:10:24.656Z,0
2017-10-10T03:11:05.206Z,0
2017-10-10T03:11:45.745Z,0
2017-10-10T03:12:26.274Z,0
2017-10-10T03:13:06.841Z,0
2017-10-10T03:13:47.389Z,0
2017-10-10T03:14:27.922Z,0
2017-10-10T03:15:08.454Z,0
2017-10-10T03:15:48.979Z,0
2017-10-10T03:16:29.515Z,0
2017-10-10T03:17:10.045Z,0
2017-10-10T03:17:50.591Z,0
2017-10-10T03:18:31.112Z,0
2017-10-10T03:19:11.633Z,0
2017-10-10T03:19:52.141Z,0
2017-10-10T03:20:32.675Z,0
2017-10-10T03:21:13.190Z,0
2017-10-10T03:21:53.689Z,0
2017-10-10T03:22:34.209Z,0
2017-10-10T03:23:14.712Z,0
2017-10-10T03:23:55.231Z,0
2017-10-10T03:24:35.762Z,0
2017-10-10T03:25:16.309Z,0
2017-10-10T03:25:56.835Z,0
2017-10-10T03:26:37.364Z,0
2017-10-10T03:27:17.923Z,0
2017-10-10T03:27:58.461Z,0
2017-10-10T03:28:38.996Z,0
2017-10-10T03:29:19.475Z,0
2017-10-10T03:29:59.988Z,0
2017-10-10T03:30:40.559Z,0
2017-10-10T03:31:21.101Z,0
2017-10-10T03:32:01.663Z,0
2017-10-10T03:32:42.184Z,0
2017-10-10T03:33:22.721Z,0
2017-10-10T03:34:03.219Z,0
2017-10-10T03:34:43.736Z,0
2017-10-10T03:35:24.291Z,0
2017-10-10T03:36:04.814Z,0
2017-10-10T03:36:45.346Z,0
2017-10-10T03:37:25.870Z,0
2017-10-10T03:38:06.393Z,0
2017-10-10T03:38:46.908Z,0
2017-10-10T03:39:27.442Z,0
2017-10-10T03:40:07.956Z,0
2017-10-10T03:40:48.498Z,0
2017-10-10T03:41:29.045Z,0
2017-10-10T03:42:09.606Z,0
2017-10-10T03:42:50.125Z,0
2017-10-10T03:43:30.656Z,0
2017-10-10T03:44:12.784Z,0
2017-10-10T03:44:53.287Z,0
2017-10-10T03:45:33.804Z,0
2017-10-10T03:46:14.325Z,0
2017-10-10T03:46:54.894Z,0
2017-10-10T03:47:35.361Z,0
2017-10-10T03:48:15.875Z,0
2017-10-10T03:48:56.398Z,0
2017-10-10T03:49:36.890Z,0
2017-10-10T03:50:17.413Z,0
2017-10-10T03:50:57.929Z,0
2017-10-10T03:51:38.489Z,0
2017-10-10T03:52:19.122Z,0
2017-10-10T03:52:59.632Z,0
2017-10-10T03:53:40.168Z,0
2017-10-10T03:54:20.699Z,0
2017-10-10T03:55:01.215Z,0
2017-10-10T03:55:41.738Z,0
2017-10-10T03:56:22.325Z,0
2017-10-10T03:57:02.840Z,0
2017-10-10T03:57:43.378Z,0
2017-10-10T03:58:23.886Z,0
2017-10-10T03:59:04.421Z,0
2017-10-10T03:59:45.056Z,0
2017-10-10T04:00:25.599Z,0
2017-10-10T04:01:06.119Z,0
2017-10-10T04:01:46.641Z,0
2017-10-10T04:02:27.166Z,0
2017-10-10T04:03:07.693Z,0
2017-10-10T04:03:48.220Z,0
2017-10-10T04:04:28.742Z,0
2017-10-10T04:05:09.277Z,0
2017-10-10T04:05:49.801Z,0
2017-10-10T04:06:30.304Z,0
2017-10-10T04:07:10.828Z,0
2017-10-10T04:07:51.404Z,0
2017-10-10T04:08:31.935Z,0
2017-10-10T04:09:12.462Z,0
2017-10-10T04:09:52.976Z,0
2017-10-10T04:10:33.493Z,0
2017-10-10T04:11:13.995Z,0
2017-10-10T04:11:54.549Z,0
2017-10-10T04:12:35.044Z,0
2017-10-10T04:13:15.581Z,0
2017-10-10T04:13:56.119Z,0
2017-10-10T04:14:36.657Z,0
2017-10-10T04:15:17.190Z,0
2017-10-10T04:15:57.712Z,0
2017-10-10T04:16:39.869Z,0
2017-10-10T04:17:20.393Z,0
2017-10-10T04:18:00.936Z,0
2017-10-10T04:18:41.471Z,0
2017-10-10T04:19:21.979Z,0
2017-10-10T04:20:02.501Z,0
2017-10-10T04:20:43.028Z,0
2017-10-10T04:21:23.555Z,0
2017-10-10T04:22:04.101Z,0
2017-10-10T04:22:44.609Z,0
2017-10-10T04:23:25.118Z,0
2017-10-10T04:24:05.633Z,0
2017-10-10T04:24:46.157Z,0
2017-10-10T04:25:26.689Z,0
2017-10-10T04:26:07.219Z,0
2017-10-10T04:26:47.741Z,0
2017-10-10T04:27:28.258Z,0
2017-10-10T04:28:08.840Z,0
2017-10-10T04:28:49.401Z,0
2017-10-10T04:29:29.950Z,0
2017-10-10T04:30:10.452Z,0
2017-10-10T04:30:50.943Z,0
2017-10-10T04:31:31.476Z,0
2017-10-10T04:32:11.947Z,0
2017-10-10T04:32:54.265Z,0
2017-10-10T04:33:34.771Z,0
2017-10-10T04:34:15.863Z,0
2017-10-10T04:34:56.900Z,0
2017-10-10T04:35:37.590Z,0
2017-10-10T04:36:18.156Z,0
2017-10-10T04:36:58.623Z,0
2017-10-10T04:37:39.156Z,0
2017-10-10T04:38:19.713Z,0
2017-10-10T04:39:00.866Z,0
2017-10-10T04:39:41.428Z,0
2017-10-10T04:40:21.984Z,0
2017-10-10T04:41:02.517Z,0
2017-10-10T04:41:43.051Z,0
2017-10-10T04:42:23.592Z,0
2017-10-10T04:43:04.114Z,0
2017-10-10T04:43:44.640Z,0
2017-10-10T04:44:25.302Z,0
2017-10-10T04:45:05.772Z,0
2017-10-10T04:45:46.308Z,0
2017-10-10T04:46:26.853Z,0
2017-10-10T04:47:07.392Z,0
2017-10-10T04:47:47.962Z,0
2017-10-10T04:48:28.728Z,0
2017-10-10T04:49:09.202Z,0
2017-10-10T04:49:49.735Z,0
2017-10-10T04:50:30.253Z,0
2017-10-10T04:51:10.789Z,0
2017-10-10T04:51:51.315Z,0
2017-10-10T04:52:31.863Z,0
2017-10-10T04:53:12.368Z,0
2017-10-10T04:53:52.917Z,0
2017-10-10T04:54:33.434Z,0
2017-10-10T04:55:13.970Z,0
2017-10-10T04:57:48.496Z,0
2017-10-10T04:58:29.022Z,0
2017-10-10T04:59:09.557Z,0
2017-10-10T04:59:50.075Z,0
2017-10-10T05:00:30.633Z,0
2017-10-10T05:01:11.150Z,0
2017-10-10T05:01:51.733Z,0
2017-10-10T05:02:32.280Z,0
2017-10-10T05:03:12.845Z,0
2017-10-10T05:03:53.610Z,0
2017-10-10T05:06:13.156Z,0
2017-10-10T05:06:53.693Z,0
2017-10-10T05:07:34.251Z,0
2017-10-10T05:08:14.806Z,0
2017-10-10T05:08:55.827Z,0
2017-10-10T05:09:36.316Z,0
2017-10-10T05:10:16.849Z,0
2017-10-10T05:10:57.371Z,0
2017-10-10T05:11:37.901Z,0
2017-10-10T05:12:18.434Z,0
2017-10-10T05:12:58.963Z,0
2017-10-10T05:13:39.491Z,0
2017-10-10T05:14:20.015Z,0
2017-10-10T05:15:00.548Z,0
2017-10-10T05:15:41.084Z,0
2017-10-10T05:16:21.606Z,0
2017-10-10T05:17:02.147Z,0
2017-10-10T05:17:42.663Z,0
2017-10-10T05:18:23.183Z,0
2017-10-10T05:19:03.716Z,0
2017-10-10T05:19:44.237Z,0
2017-10-10T05:20:24.774Z,0
2017-10-10T05:21:05.295Z,0
2017-10-10T05:21:45.824Z,0
2017-10-10T05:22:26.361Z,0
2017-10-10T05:23:06.892Z,0
2017-10-10T05:23:47.423Z,0
2017-10-10T05:24:27.951Z,0
2017-10-10T05:25:08.488Z,0
2017-10-10T05:25:49.022Z,0
2017-10-10T05:26:29.544Z,0
2017-10-10T05:27:10.073Z,0
2017-10-10T05:27:50.591Z,0
2017-10-10T05:28:31.125Z,0
2017-10-10T05:29:11.631Z,0
2017-10-10T05:29:52.140Z,0
2017-10-10T05:30:32.695Z,0
2017-10-10T05:31:13.240Z,0
2017-10-10T05:31:53.763Z,0
2017-10-10T05:32:34.313Z,0
2017-10-10T05:33:14.850Z,0
2017-10-10T05:33:55.370Z,0
2017-10-10T05:34:35.904Z,0
2017-10-10T05:35:16.468Z,0
2017-10-10T05:35:56.983Z,0
2017-10-10T05:36:37.574Z,0
2017-10-10T05:37:18.109Z,0
2017-10-10T05:37:58.635Z,0
2017-10-10T05:38:39.175Z,0
2017-10-10T05:39:19.687Z,0
2017-10-10T05:40:00.219Z,0
2017-10-10T05:40:40.747Z,0
2017-10-10T05:41:21.288Z,0
2017-10-10T05:42:01.808Z,0
2017-10-10T05:42:42.344Z,0
2017-10-10T05:43:22.883Z,0
2017-10-10T05:44:03.416Z,0
2017-10-10T05:44:43.959Z,0
2017-10-10T05:45:24.504Z,0
2017-10-10T05:46:05.048Z,0
2017-10-10T05:46:45.598Z,0
2017-10-10T05:47:26.131Z,0
2017-10-10T05:48:06.647Z,0
2017-10-10T05:48:47.172Z,0
2017-10-10T05:49:27.711Z,0
2017-10-10T05:50:08.242Z,0
2017-10-10T05:50:48.780Z,0
2017-10-10T05:51:29.331Z,0
2017-10-10T05:52:09.863Z,0
2017-10-10T05:52:50.390Z,0
2017-10-10T05:53:30.926Z,0
2017-10-10T05:54:11.471Z,0
2017-10-10T05:54:51.986Z,0
2017-10-10T05:55:32.544Z,0
2017-10-10T05:56:13.053Z,0
2017-10-10T05:56:53.586Z,0
2017-10-10T05:57:34.131Z,0
2017-10-10T05:58:14.664Z,0
2017-10-10T05:58:55.245Z,0
2017-10-10T05:59:35.758Z,0
2017-10-10T06:00:16.292Z,0
2017-10-10T06:00:56.825Z,0
2017-10-10T06:01:37.354Z,0
2017-10-10T06:02:17.896Z,0
2017-10-10T06:02:58.416Z,0
2017-10-10T06:03:38.950Z,0
2017-10-10T06:04:19.463Z,0
2017-10-10T06:05:00.003Z,0
2017-10-10T06:05:40.531Z,0
2017-10-10T06:06:21.057Z,0
2017-10-10T06:07:01.602Z,0
2017-10-10T06:07:42.134Z,0
2017-10-10T06:08:22.662Z,0
2017-10-10T06:09:03.198Z,0
2017-10-10T06:09:43.740Z,0
2017-10-10T06:10:24.254Z,0
2017-10-10T06:11:04.798Z,0
2017-10-10T06:11:45.306Z,5
2017-10-10T06:12:25.829Z,5
2017-10-10T06:13:06.374Z,0
2017-10-10T06:13:46.908Z,5
2017-10-10T06:14:27.433Z,5
2017-10-10T06:15:07.964Z,5
2017-10-10T06:15:48.504Z,5
2017-10-10T06:16:29.025Z,5
2017-10-10T06:17:09.569Z,5
2017-10-10T06:17:50.124Z,5
2017-10-10T06:18:30.650Z,5
2017-10-10T06:19:11.192Z,5
2017-10-10T06:19:51.729Z,5
2017-10-10T06:20:32.263Z,5
2017-10-10T06:21:12.786Z,5
2017-10-10T06:21:53.323Z,5
2017-10-10T06:22:33.852Z,5
2017-10-10T06:23:14.380Z,5
2017-10-10T06:23:54.908Z,5
2017-10-10T06:24:35.428Z,5
2017-10-10T06:25:15.984Z,5
2017-10-10T06:25:56.538Z,5
2017-10-10T06:26:37.057Z,5
2017-10-10T06:27:17.587Z,5
2017-10-10T06:27:58.117Z,5
2017-10-10T06:28:38.651Z,5
2017-10-10T06:29:19.189Z,5
2017-10-10T06:29:59.740Z,5
2017-10-10T06:30:40.306Z,5
2017-10-10T06:31:20.840Z,10
2017-10-10T06:32:01.362Z,5
2017-10-10T06:32:41.883Z,5
2017-10-10T06:33:22.416Z,10
2017-10-10T06:34:02.947Z,10
2017-10-10T06:34:43.466Z,10
2017-10-10T06:35:24.005Z,10
2017-10-10T06:36:04.541Z,5
2017-10-10T06:36:45.068Z,5
2017-10-10T06:37:25.593Z,5
2017-10-10T06:38:06.135Z,5
2017-10-10T06:38:46.666Z,5
2017-10-10T06:39:27.203Z,5
2017-10-10T06:40:07.714Z,5
2017-10-10T06:40:48.252Z,5
2017-10-10T06:41:28.767Z,5
2017-10-10T06:42:09.296Z,5
2017-10-10T06:42:49.827Z,5
2017-10-10T06:43:30.352Z,5
2017-10-10T06:44:10.878Z,5
2017-10-10T06:44:51.434Z,5
2017-10-10T06:45:31.951Z,5
2017-10-10T06:46:12.488Z,5
2017-10-10T06:46:53.014Z,5
2017-10-10T06:47:33.520Z,5
2017-10-10T06:48:14.042Z,5
2017-10-10T06:48:54.574Z,5
2017-10-10T06:49:35.093Z,5
2017-10-10T06:50:15.624Z,5
2017-10-10T06:50:56.154Z,5
2017-10-10T06:51:36.726Z,10
2017-10-10T06:52:17.237Z,10
2017-10-10T06:52:57.756Z,10
2017-10-10T06:53:38.281Z,10
2017-10-10T06:54:18.834Z,10
2017-10-10T06:54:59.355Z,10
2017-10-10T06:55:39.879Z,10
2017-10-10T06:56:20.414Z,10
2017-10-10T06:57:00.937Z,10
2017-10-10T06:57:41.452Z,10
2017-10-10T06:58:21.977Z,15
2017-10-10T06:59:02.515Z,20
2017-10-10T06:59:43.044Z,25
2017-10-10T07:00:23.578Z,30
2017-10-10T07:01:04.091Z,30
2017-10-10T07:01:44.616Z,30
2017-10-10T07:02:25.154Z,30
2017-10-10T07:03:05.656Z,35
2017-10-10T07:03:46.168Z,35
2017-10-10T07:04:26.719Z,45
2017-10-10T07:05:07.226Z,50
2017-10-10T07:05:47.756Z,50
2017-10-10T07:06:28.276Z,50
2017-10-10T07:07:08.820Z,50
2017-10-10T07:07:49.332Z,55
2017-10-10T07:08:29.851Z,55
2017-10-10T07:09:10.381Z,50
2017-10-10T07:09:50.913Z,50
2017-10-10T07:10:31.434Z,50
2017-10-10T07:11:11.968Z,55
2017-10-10T07:11:52.493Z,60
2017-10-10T07:12:33.029Z,65
2017-10-10T07:13:13.569Z,65
2017-10-10T07:13:54.109Z,65
2017-10-10T07:14:34.612Z,65
2017-10-10T07:15:15.160Z,65
2017-10-10T07:15:55.663Z,70
2017-10-10T07:16:36.204Z,65
2017-10-10T07:17:16.718Z,60
2017-10-10T07:17:57.286Z,55
2017-10-10T07:18:37.805Z,50
2017-10-10T07:19:18.333Z,55
2017-10-10T07:19:58.865Z,50
2017-10-10T07:20:39.402Z,45
2017-10-10T07:21:19.930Z,40
2017-10-10T07:22:00.457Z,40
2017-10-10T07:22:40.993Z,35
2017-10-10T07:23:21.522Z,35
2017-10-10T07:24:02.043Z,35
2017-10-10T07:24:42.566Z,40
2017-10-10T07:25:23.093Z,45
2017-10-10T07:26:03.622Z,45
2017-10-10T07:26:44.159Z,45
2017-10-10T07:27:24.693Z,40
2017-10-10T07:28:05.220Z,35
2017-10-10T07:28:45.749Z,35
2017-10-10T07:29:26.269Z,30
2017-10-10T07:30:06.814Z,30
2017-10-10T07:30:47.319Z,30
2017-10-10T07:31:27.842Z,30
2017-10-10T07:32:08.377Z,30
2017-10-10T07:32:48.907Z,30
2017-10-10T07:33:29.420Z,30
2017-10-10T07:34:09.939Z,30
2017-10-10T07:34:50.499Z,25
2017-10-10T07:35:30.994Z,25
2017-10-10T07:36:11.529Z,25
2017-10-10T07:36:52.056Z,20
2017-10-10T07:37:32.575Z,20
2017-10-10T07:38:13.101Z,20
2017-10-10T07:38:53.633Z,20
2017-10-10T07:39:34.156Z,20
2017-10-10T07:40:14.685Z,20
2017-10-10T07:40:55.208Z,20
2017-10-10T07:41:35.712Z,20
2017-10-10T07:42:16.247Z,20
2017-10-10T07:42:56.776Z,25
2017-10-10T07:43:37.314Z,25
2017-10-10T07:44:17.849Z,30
2017-10-10T07:44:58.368Z,30
2017-10-10T07:45:38.884Z,30
2017-10-10T07:46:19.416Z,30
2017-10-10T07:46:59.969Z,30
2017-10-10T07:47:40.478Z,30
2017-10-10T07:48:21.007Z,35
2017-10-10T07:49:01.535Z,30
2017-10-10T07:49:42.096Z,25
2017-10-10T07:50:22.610Z,25
2017-10-10T07:51:03.121Z,20
2017-10-10T07:51:43.650Z,20
2017-10-10T07:52:24.179Z,20
2017-10-10T07:53:04.716Z,20
2017-10-10T07:53:45.246Z,25
2017-10-10T07:54:25.777Z,25
2017-10-10T07:55:06.302Z,25
2017-10-10T07:55:46.809Z,25
2017-10-10T07:56:27.337Z,25
2017-10-10T07:57:07.865Z,25
2017-10-10T07:57:48.404Z,30
2017-10-10T07:58:28.966Z,30
2017-10-10T07:59:09.486Z,30
2017-10-10T07:59:50.110Z,30
2017-10-10T08:00:30.612Z,30
2017-10-10T08:01:11.144Z,30
2017-10-10T08:01:51.681Z,35
2017-10-10T08:02:32.219Z,40
2017-10-10T08:03:12.742Z,45
2017-10-10T08:03:53.271Z,45
2017-10-10T08:04:33.815Z,40
2017-10-10T08:05:14.338Z,45
2017-10-10T08:05:54.873Z,50
2017-10-10T08:06:35.416Z,55
2017-10-10T08:07:15.936Z,70
2017-10-10T08:07:56.479Z,80
2017-10-10T08:08:37.004Z,85
2017-10-10T08:09:17.543Z,95
2017-10-10T08:09:58.084Z,100
2017-10-10T08:10:38.625Z,95
2017-10-10T08:11:19.138Z,90
2017-10-10T08:11:59.659Z,80
2017-10-10T08:12:40.191Z,75
2017-10-10T08:13:20.739Z,65
2017-10-10T08:14:01.249Z,65
2017-10-10T08:14:41.777Z,60
2017-10-10T08:15:22.314Z,70
2017-10-10T08:16:02.823Z,70
2017-10-10T08:16:43.412Z,65
2017-10-10T08:17:23.941Z,65
2017-10-10T08:18:04.475Z,65
2017-10-10T08:18:45.007Z,65
2017-10-10T08:19:25.539Z,65
2017-10-10T08:20:06.095Z,75
2017-10-10T08:20:46.649Z,80
2017-10-10T08:21:27.160Z,85
2017-10-10T08:22:07.693Z,85
2017-10-10T08:22:48.226Z,90
2017-10-10T08:23:28.758Z,85
2017-10-10T08:24:09.283Z,85
2017-10-10T08:24:49.808Z,90
2017-10-10T08:25:30.348Z,90
2017-10-10T08:26:10.883Z,90
2017-10-10T08:26:51.418Z,95
2017-10-10T08:27:31.942Z,100
2017-10-10T08:28:12.533Z,105
2017-10-10T08:28:53.085Z,100
2017-10-10T08:29:33.619Z,90
2017-10-10T08:30:14.145Z,80
2017-10-10T08:30:54.683Z,75
2017-10-10T08:31:35.217Z,75
2017-10-10T08:32:15.751Z,75
2017-10-10T08:32:56.286Z,75
2017-10-10T08:33:36.809Z,75
2017-10-10T08:34:17.351Z,70
2017-10-10T08:34:57.861Z,70
2017-10-10T08:35:38.390Z,70
2017-10-10T08:36:18.914Z,65
2017-10-10T08:36:59.456Z,55
2017-10-10T08:37:39.983Z,55
2017-10-10T08:38:20.522Z,55
2017-10-10T08:39:01.065Z,55
2017-10-10T08:39:41.639Z,55
2017-10-10T08:40:22.104Z,55
2017-10-10T08:41:02.618Z,50
2017-10-10T08:41:43.154Z,45
2017-10-10T08:42:23.657Z,50
2017-10-10T08:43:04.181Z,50
2017-10-10T08:43:44.711Z,65
2017-10-10T08:44:25.240Z,75
2017-10-10T08:45:05.812Z,70
2017-10-10T08:45:46.362Z,60
2017-10-10T08:46:26.894Z,65
2017-10-10T08:47:07.421Z,60
2017-10-10T08:47:47.953Z,55
2017-10-10T08:48:28.493Z,65
2017-10-10T08:49:09.028Z,80
2017-10-10T08:49:49.553Z,85
2017-10-10T08:50:30.099Z,85
2017-10-10T08:51:10.636Z,85
2017-10-10T08:51:51.167Z,80
2017-10-10T08:52:31.700Z,80
2017-10-10T08:53:12.227Z,80
2017-10-10T08:53:52.806Z,75
2017-10-10T08:54:33.340Z,65
2017-10-10T08:55:13.884Z,65
2017-10-10T08:55:54.446Z,75
2017-10-10T08:56:34.991Z,75
2017-10-10T08:57:15.525Z,75
2017-10-10T08:57:56.067Z,85
2017-10-10T08:58:36.628Z,90
2017-10-10T08:59:17.159Z,95
2017-10-10T08:59:57.709Z,95
2017-10-10T09:00:38.247Z,105
2017-10-10T09:01:18.780Z,105
2017-10-10T09:01:59.314Z,105
2017-10-10T09:02:39.837Z,105
2017-10-10T09:03:20.372Z,130
2017-10-10T09:04:00.915Z,160
2017-10-10T09:04:41.445Z,170
2017-10-10T09:05:21.975Z,160
2017-10-10T09:06:02.513Z,155
2017-10-10T09:06:43.045Z,135
2017-10-10T09:07:23.583Z,120
2017-10-10T09:08:04.112Z,105
2017-10-10T09:08:44.641Z,100
2017-10-10T09:09:25.172Z,100
2017-10-10T09:10:05.696Z,105
2017-10-10T09:10:46.239Z,100
2017-10-10T09:11:26.768Z,90
2017-10-10T09:12:07.299Z,85
2017-10-10T09:12:47.835Z,85
2017-10-10T09:13:28.365Z,85
2017-10-10T09:14:08.896Z,90
2017-10-10T09:14:49.436Z,90
2017-10-10T09:15:29.981Z,85
2017-10-10T09:16:10.523Z,80
2017-10-10T09:16:51.070Z,80
2017-10-10T09:17:31.626Z,80
2017-10-10T09:18:12.141Z,80
2017-10-10T09:18:52.694Z,90
2017-10-10T09:19:33.227Z,100
2017-10-10T09:20:13.759Z,105
2017-10-10T09:20:54.294Z,105
2017-10-10T09:21:34.826Z,115
2017-10-10T09:22:15.354Z,125
2017-10-10T09:22:55.888Z,140
2017-10-10T09:23:36.423Z,160
2017-10-10T09:24:16.951Z,180
2017-10-10T09:24:57.493Z,185
2017-10-10T09:25:38.042Z,185
2017-10-10T09:26:18.563Z,180
2017-10-10T09:26:59.077Z,170
2017-10-10T09:27:39.608Z,165
2017-10-10T09:28:20.128Z,155
2017-10-10T09:29:00.650Z,130
2017-10-10T09:29:41.185Z,120
2017-10-10T09:30:21.707Z,110
2017-10-10T09:31:02.232Z,110
2017-10-10T09:31:42.749Z,110
2017-10-10T09:32:23.291Z,110
2017-10-10T09:33:03.818Z,115
2017-10-10T09:33:44.352Z,115
2017-10-10T09:34:24.902Z,110
2017-10-10T09:35:05.450Z,110
2017-10-10T09:35:45.948Z,115
2017-10-10T09:36:26.454Z,125
2017-10-10T09:37:06.998Z,135
2017-10-10T09:37:47.548Z,145
2017-10-10T09:38:28.057Z,160
2017-10-10T09:39:08.591Z,165
2017-10-10T09:39:49.121Z,180
2017-10-10T09:40:29.647Z,185
2017-10-10T09:41:10.207Z,180
2017-10-10T09:41:50.752Z,180
2017-10-10T09:42:31.253Z,165
2017-10-10T09:43:11.824Z,165
2017-10-10T09:43:52.414Z,155
2017-10-10T09:44:32.941Z,165
2017-10-10T09:45:13.463Z,180
2017-10-10T09:45:54.003Z,180
2017-10-10T09:46:34.530Z,175
2017-10-10T09:47:15.065Z,185
2017-10-10T09:47:55.620Z,185
2017-10-10T09:48:36.143Z,190
2017-10-10T09:49:16.653Z,185
2017-10-10T09:49:57.207Z,170
2017-10-10T09:50:37.741Z,165
2017-10-10T09:51:18.279Z,165
2017-10-10T09:51:58.816Z,170
2017-10-10T09:52:39.397Z,175
2017-10-10T09:53:19.924Z,175
2017-10-10T09:54:00.464Z,160
2017-10-10T09:54:40.969Z,140